createdAt,value
2018-12-16T00:00:26.115Z,8.12
2018-12-16T00:06:21.072Z,7.75
2018-12-16T00:12:16.115Z,8.12
2018-12-16T00:18:11.121Z,8.4
2018-12-16T00:24:06.128Z,8.33
2018-12-16T00:30:01.168Z,6.88
2018-12-16T00:35:56.112Z,11.85
2018-12-16T00:41:51.096Z,6.27
2018-12-16T00:47:47.537Z,7.21
2018-12-16T00:53:41.089Z,7.37
2018-12-16T00:59:36.122Z,12.12
2018-12-16T01:05:31.155Z,9.7
2018-12-16T01:11:26.122Z,7.77
2018-12-16T01:17:21.155Z,11.83
2018-12-16T01:23:16.139Z,8.53
2018-12-16T01:29:11.130Z,8.15
2018-12-16T01:35:06.174Z,8.79
2018-12-16T01:41:01.162Z,8.23
2018-12-16T01:46:56.158Z,8.17
2018-12-16T01:52:51.145Z,6.26
2018-12-16T01:58:46.131Z,8.21
2018-12-16T02:04:41.159Z,5.83
2018-12-16T02:10:36.167Z,8.85
2018-12-16T02:16:31.147Z,5.7
2018-12-16T02:22:26.160Z,6.89
2018-12-16T02:28:21.183Z,7.82
2018-12-16T02:34:16.167Z,6.27
2018-12-16T02:40:11.159Z,5.05
2018-12-16T02:46:06.144Z,5.67
2018-12-16T02:52:01.209Z,8.34
2018-12-16T02:57:56.156Z,5.33
2018-12-16T03:03:51.144Z,9.18
2018-12-16T03:09:46.189Z,7.75
2018-12-16T03:15:41.162Z,8.4
2018-12-16T03:21:36.169Z,12.56
2018-12-16T03:27:31.172Z,9.16
2018-12-16T03:33:26.182Z,14.08
2018-12-16T03:39:21.161Z,14.23
2018-12-16T03:45:16.171Z,10.43
2018-12-16T03:51:11.196Z,13.05
2018-12-16T03:57:06.206Z,12.5
2018-12-16T04:03:01.201Z,12.12
2018-12-16T04:08:56.186Z,11.93
2018-12-16T04:14:51.190Z,10.5
2018-12-16T04:20:46.220Z,11.17
2018-12-16T04:26:41.202Z,10.03
2018-12-16T04:32:36.195Z,13.42
2018-12-16T04:38:31.186Z,14.61
2018-12-16T04:44:26.210Z,11.42
2018-12-16T04:50:21.230Z,12.65
2018-12-16T04:56:16.289Z,17.18
2018-12-16T05:02:11.262Z,15.53
2018-12-16T05:08:06.211Z,13.84
2018-12-16T05:14:01.209Z,12.89
2018-12-16T05:19:56.303Z,9.68
2018-12-16T05:25:51.218Z,12.89
2018-12-16T05:31:46.215Z,13.72
2018-12-16T05:37:41.240Z,10.56
2018-12-16T05:43:36.242Z,10.36
2018-12-16T05:49:31.254Z,16.39
2018-12-16T05:55:26.260Z,18.57
2018-12-16T06:01:21.225Z,16.73
2018-12-16T06:07:16.238Z,27.69
2018-12-16T06:13:11.243Z,24.25
2018-12-16T06:19:06.254Z,29.58
2018-12-16T06:25:01.281Z,24.09
2018-12-16T06:30:56.304Z,15.5
2018-12-16T06:36:51.266Z,15.33
2018-12-16T06:42:46.258Z,14.44
2018-12-16T06:48:41.239Z,15.13
2018-12-16T06:54:36.344Z,11.3
2018-12-16T07:00:31.244Z,15.75
2018-12-16T07:06:26.275Z,11.65
2018-12-16T07:12:21.268Z,12.87
2018-12-16T07:18:16.284Z,19.08
2018-12-16T07:24:11.283Z,12.15
2018-12-16T07:30:06.281Z,14.89
2018-12-16T07:36:01.287Z,20.78
2018-12-16T07:41:56.328Z,23.57
2018-12-16T07:47:51.281Z,29.52
2018-12-16T07:53:46.277Z,32.75
2018-12-16T07:59:41.271Z,33.43
2018-12-16T08:05:36.267Z,43.9
2018-12-16T08:11:31.279Z,46.57
2018-12-16T08:17:26.297Z,36.4
2018-12-16T08:23:21.280Z,38.03
2018-12-16T08:29:16.311Z,33.87
2018-12-16T08:35:11.299Z,40.48
2018-12-16T08:41:06.285Z,40.1
2018-12-16T08:47:01.300Z,38.56
2018-12-16T08:52:56.354Z,47.7
2018-12-16T08:58:51.334Z,46.27
2018-12-16T09:04:46.288Z,42.85
2018-12-16T09:10:41.311Z,39.74
2018-12-16T09:16:36.306Z,34.93
2018-12-16T09:22:32.203Z,31.92
2018-12-16T09:28:26.317Z,30.98
2018-12-16T09:34:21.308Z,34.23
2018-12-16T09:40:16.341Z,34.34
2018-12-16T09:46:11.328Z,35.33
2018-12-16T09:52:06.392Z,48.24
2018-12-16T09:58:01.333Z,41.55
2018-12-16T10:03:56.331Z,36.57
2018-12-16T10:09:51.323Z,39.72
2018-12-16T10:15:46.321Z,128.62
2018-12-16T10:21:42.787Z,52.36
2018-12-16T10:27:36.345Z,49.14
2018-12-16T10:33:31.343Z,53.85
2018-12-16T10:39:26.355Z,48.75
2018-12-16T10:45:21.368Z,46.07
2018-12-16T10:51:16.363Z,56.89
2018-12-16T10:57:11.410Z,57.75
2018-12-16T11:03:06.353Z,50.76
2018-12-16T11:09:01.355Z,48.64
2018-12-16T11:14:56.353Z,50.48
2018-12-16T11:20:51.347Z,63.04
2018-12-16T11:26:46.386Z,65.77
2018-12-16T11:32:41.364Z,64.45
2018-12-16T11:38:36.423Z,79.58
2018-12-16T11:44:31.354Z,72.22
2018-12-16T11:50:26.358Z,82.03
2018-12-16T11:56:21.389Z,81.55
2018-12-16T12:02:16.383Z,81.29
2018-12-16T12:08:11.396Z,77.16
2018-12-16T12:14:06.372Z,57.4
2018-12-16T12:20:01.401Z,81.03
2018-12-16T12:25:56.403Z,65.27
2018-12-16T12:31:51.438Z,55.85
2018-12-16T12:37:46.401Z,50.49
2018-12-16T12:43:41.373Z,58.14
2018-12-16T12:49:36.391Z,53.5
2018-12-16T12:55:31.413Z,46.63
2018-12-16T13:01:26.403Z,51.87
2018-12-16T13:07:21.414Z,49.5
2018-12-16T13:13:16.416Z,49.86
2018-12-16T13:19:11.412Z,64.97
2018-12-16T13:25:06.427Z,65.93
2018-12-16T13:31:01.474Z,62.57
2018-12-16T13:36:56.448Z,53.07
2018-12-16T13:42:51.456Z,48.42
2018-12-16T13:48:46.453Z,60.26
2018-12-16T13:54:41.442Z,70.6
2018-12-16T14:00:36.441Z,67.24
2018-12-16T14:06:31.460Z,64.29
2018-12-16T14:12:26.435Z,72.61
2018-12-16T14:18:21.441Z,60.68
2018-12-16T14:24:16.457Z,61.34
2018-12-16T14:30:11.443Z,66.4
2018-12-16T14:36:06.484Z,66.4
2018-12-16T14:42:01.461Z,66.05
2018-12-16T14:47:56.440Z,74.54
2018-12-16T14:53:51.447Z,80.83
2018-12-16T14:59:46.467Z,78.66
2018-12-16T15:05:41.493Z,61.98
2018-12-16T15:11:36.450Z,72.91
2018-12-16T15:17:31.460Z,64.66
2018-12-16T15:23:26.482Z,64.05
2018-12-16T15:29:21.551Z,68.18
2018-12-16T15:35:16.488Z,60.04
2018-12-16T15:41:11.473Z,64.45
2018-12-16T15:47:06.490Z,95.79
2018-12-16T15:53:01.473Z,97.25
2018-12-16T15:58:56.476Z,88.57
2018-12-16T16:04:51.523Z,87.53
2018-12-16T16:10:46.514Z,109.38
2018-12-16T16:16:41.515Z,88.78
2018-12-16T16:22:36.542Z,91.25
2018-12-16T16:28:31.496Z,78.78
2018-12-16T16:34:26.522Z,76.92
2018-12-16T16:40:21.544Z,70.8
2018-12-16T16:46:16.542Z,90.54
2018-12-16T16:52:11.496Z,96.78
2018-12-16T16:58:06.529Z,119.05
2018-12-16T17:04:01.519Z,119.17
2018-12-16T17:09:56.508Z,107.9
2018-12-16T17:15:51.517Z,64.2
2018-12-16T17:21:46.530Z,85.98
2018-12-16T17:27:41.561Z,68.77
2018-12-16T17:33:36.539Z,42.73
2018-12-16T17:39:31.529Z,104.72
2018-12-16T17:45:26.541Z,89.62
2018-12-16T17:51:21.542Z,81.65
2018-12-16T17:57:16.533Z,98.2
2018-12-16T18:03:11.544Z,85.55
2018-12-16T18:09:06.539Z,83.79
2018-12-16T18:15:01.570Z,75.21
2018-12-16T18:20:56.558Z,89.3
2018-12-16T18:26:51.549Z,89.87
2018-12-16T18:32:46.606Z,93.9
2018-12-16T18:38:41.542Z,97.76
2018-12-16T18:44:36.570Z,106.63
2018-12-16T18:50:31.559Z,103.31
2018-12-16T18:56:26.555Z,109.87
2018-12-16T19:02:21.571Z,113.92
2018-12-16T19:08:16.588Z,121.67
2018-12-16T19:14:11.578Z,119.9
2018-12-16T19:20:06.569Z,123.08
2018-12-16T19:26:01.617Z,122.11
2018-12-16T19:31:56.590Z,12.75
2018-12-16T19:37:51.579Z,147.94
2018-12-16T19:43:46.581Z,164.03
2018-12-16T19:49:41.627Z,151.98
2018-12-16T19:55:36.621Z,148.98
2018-12-16T20:01:31.594Z,156.73
2018-12-16T20:07:26.616Z,144.7
2018-12-16T20:13:21.590Z,132.85
2018-12-16T20:19:16.603Z,139.43
2018-12-16T20:25:11.614Z,118.1
2018-12-16T20:31:06.603Z,137.57
2018-12-16T20:37:01.590Z,138.82
2018-12-16T20:42:56.646Z,136.88
2018-12-16T20:48:51.620Z,114.15
2018-12-16T20:54:46.615Z,110.32
2018-12-16T21:00:41.681Z,141.82
2018-12-16T21:06:36.624Z,138.86
2018-12-16T21:12:31.631Z,154.51
2018-12-16T21:18:26.622Z,134.03
2018-12-16T21:24:21.655Z,125.52
2018-12-16T21:30:16.670Z,134.53
2018-12-16T21:36:11.648Z,134.11
2018-12-16T21:42:06.643Z,134.63
2018-12-16T21:48:01.635Z,149.24
2018-12-16T21:53:56.653Z,155.61
2018-12-16T21:59:51.644Z,144.96
2018-12-16T22:05:46.653Z,140.09
2018-12-16T22:11:41.648Z,146.66
2018-12-16T22:17:36.681Z,95.75
2018-12-16T22:23:31.668Z,87.67
2018-12-16T22:29:26.676Z,73.8
2018-12-16T22:35:21.671Z,63.94
2018-12-16T22:41:16.684Z,54.99
2018-12-16T22:47:11.660Z,51.45
2018-12-16T22:53:06.692Z,47.93
2018-12-16T22:59:01.657Z,42.87
2018-12-16T23:04:56.680Z,39.04
2018-12-16T23:10:51.682Z,42.02
2018-12-16T23:16:46.677Z,35.79
2018-12-16T23:22:41.710Z,33.32
2018-12-16T23:28:36.701Z,23.37
2018-12-16T23:34:31.730Z,21.87
2018-12-16T23:40:26.703Z,20.35
2018-12-16T23:46:21.685Z,19.73
2018-12-16T23:52:16.689Z,22.49
2018-12-16T23:58:11.684Z,20.31
